createdAt,value
2018-11-05T00:02:24.603Z,18.52
2018-11-05T00:04:52.175Z,22.85
2018-11-05T00:07:19.670Z,23.98
2018-11-05T00:09:47.308Z,19.90
2018-11-05T00:12:14.763Z,21.00
2018-11-05T00:14:42.334Z,21.65
2018-11-05T00:17:09.813Z,21.45
2018-11-05T00:19:37.349Z,23.15
2018-11-05T00:22:05.798Z,21.52
2018-11-05T00:24:33.343Z,20.00
2018-11-05T00:27:00.843Z,17.85
2018-11-05T00:29:28.380Z,18.45
2018-11-05T00:31:55.854Z,18.48
2018-11-05T00:34:23.496Z,20.68
2018-11-05T00:36:50.968Z,19.35
2018-11-05T00:39:18.525Z,20.30
2018-11-05T00:41:45.982Z,20.68
2018-11-05T00:44:13.622Z,19.07
2018-11-05T00:46:41.107Z,19.12
2018-11-05T00:49:08.646Z,22.85
2018-11-05T00:51:36.294Z,23.57
2018-11-05T00:54:04.018Z,22.65
2018-11-05T00:56:31.561Z,20.52
2018-11-05T00:58:59.021Z,20.95
2018-11-05T01:01:26.781Z,23.62
2018-11-05T01:03:54.239Z,20.32
2018-11-05T01:06:21.782Z,20.60
2018-11-05T01:08:49.241Z,20.52
2018-11-05T01:11:16.697Z,17.70
2018-11-05T01:13:44.314Z,22.32
2018-11-05T01:16:11.773Z,20.57
2018-11-05T01:18:39.312Z,24.07
2018-11-05T01:21:07.051Z,23.52
2018-11-05T01:23:34.522Z,20.12
2018-11-05T01:26:02.094Z,27.48
2018-11-05T01:28:29.586Z,21.45
2018-11-05T01:30:57.122Z,20.12
2018-11-05T01:33:24.664Z,18.80
2018-11-05T01:35:52.122Z,21.80
2018-11-05T01:38:19.658Z,20.95
2018-11-05T01:40:47.201Z,21.17
2018-11-05T01:43:14.751Z,16.85
2018-11-05T01:45:42.222Z,18.50
2018-11-05T01:48:09.759Z,19.23
2018-11-05T01:50:37.292Z,20.35
2018-11-05T01:53:05.259Z,19.05
2018-11-05T01:55:32.734Z,19.00
2018-11-05T01:58:00.305Z,18.92
2018-11-05T02:00:27.833Z,21.00
2018-11-05T02:02:55.395Z,20.57
2018-11-05T02:05:22.884Z,23.38
2018-11-05T02:07:50.360Z,19.17
2018-11-05T02:10:18.587Z,22.42
2018-11-05T02:12:46.022Z,24.77
2018-11-05T02:15:13.763Z,18.90
2018-11-05T02:17:42.471Z,20.02
2018-11-05T02:20:10.443Z,19.27
2018-11-05T02:22:38.285Z,24.75
2018-11-05T02:25:06.503Z,20.00
2018-11-05T02:27:34.001Z,21.68
2018-11-05T02:30:01.723Z,21.75
2018-11-05T02:32:29.254Z,17.90
2018-11-05T02:34:56.758Z,22.95
2018-11-05T02:37:24.330Z,20.82
2018-11-05T02:39:51.866Z,22.73
2018-11-05T02:42:19.471Z,19.55
2018-11-05T02:44:46.946Z,20.70
2018-11-05T02:47:14.510Z,18.92
2018-11-05T02:49:42.002Z,26.87
2018-11-05T02:52:09.689Z,20.05
2018-11-05T02:54:37.142Z,20.17
2018-11-05T02:57:04.750Z,22.30
2018-11-05T02:59:32.242Z,21.12
2018-11-05T03:01:59.770Z,21.77
2018-11-05T03:04:27.230Z,19.90
2018-11-05T03:06:54.762Z,28.07
2018-11-05T03:09:22.322Z,22.45
2018-11-05T03:11:49.875Z,18.27
2018-11-05T03:14:17.347Z,18.45
2018-11-05T03:16:44.891Z,17.82
2018-11-05T03:19:12.452Z,20.68
2018-11-05T03:21:39.924Z,21.10
2018-11-05T03:24:07.525Z,18.75
2018-11-05T03:26:34.990Z,19.17
2018-11-05T03:29:02.570Z,19.25
2018-11-05T03:31:30.019Z,18.15
2018-11-05T03:33:57.562Z,21.42
2018-11-05T03:36:25.062Z,19.70
2018-11-05T03:38:52.657Z,21.00
2018-11-05T03:41:20.189Z,16.70
2018-11-05T03:43:47.744Z,19.32
2018-11-05T03:46:15.215Z,20.40
2018-11-05T03:48:42.756Z,19.57
2018-11-05T03:51:10.415Z,16.73
2018-11-05T03:53:37.962Z,18.45
2018-11-05T03:56:06.257Z,19.75
2018-11-05T03:58:33.624Z,17.10
2018-11-05T04:01:01.399Z,22.93
2018-11-05T04:03:28.972Z,20.70
2018-11-05T04:05:56.472Z,18.15
2018-11-05T04:08:23.934Z,16.67
2018-11-05T04:10:51.469Z,17.25
2018-11-05T04:13:18.937Z,21.55
2018-11-05T04:15:46.538Z,17.27
2018-11-05T04:18:13.950Z,15.75
2018-11-05T04:20:41.475Z,18.40
2018-11-05T04:23:08.945Z,21.60
2018-11-05T04:25:36.483Z,21.62
2018-11-05T04:28:03.967Z,23.02
2018-11-05T04:30:33.220Z,20.43
2018-11-05T04:33:00.807Z,21.68
2018-11-05T04:35:28.380Z,17.15
2018-11-05T04:37:55.838Z,20.92
2018-11-05T04:40:23.337Z,17.65
2018-11-05T04:42:50.873Z,16.12
2018-11-05T04:45:18.335Z,17.40
2018-11-05T04:47:45.923Z,18.42
2018-11-05T04:50:13.814Z,20.48
2018-11-05T04:52:41.985Z,17.55
2018-11-05T04:55:09.513Z,19.25
2018-11-05T04:57:37.096Z,19.32
2018-11-05T05:00:09.096Z,19.82
2018-11-05T05:02:36.770Z,17.07
2018-11-05T05:05:04.426Z,20.62
2018-11-05T05:07:32.081Z,17.32
2018-11-05T05:09:59.620Z,16.62
2018-11-05T05:12:27.166Z,16.62
2018-11-05T05:14:54.745Z,18.80
2018-11-05T05:17:22.223Z,20.43
2018-11-05T05:19:49.761Z,21.07
2018-11-05T05:22:17.323Z,21.62
2018-11-05T05:24:44.824Z,23.20
2018-11-05T05:27:12.268Z,17.23
2018-11-05T05:29:39.876Z,16.48
2018-11-05T05:32:07.394Z,21.45
2018-11-05T05:34:35.038Z,19.60
2018-11-05T05:37:02.525Z,23.75
2018-11-05T05:39:30.069Z,19.40
2018-11-05T05:41:57.582Z,22.15
2018-11-05T05:44:25.138Z,18.62
2018-11-05T05:46:52.780Z,21.42
2018-11-05T05:49:20.439Z,19.60
2018-11-05T05:51:47.995Z,20.52
2018-11-05T05:54:15.566Z,17.37
2018-11-05T05:56:43.139Z,22.73
2018-11-05T05:59:10.662Z,18.17
2018-11-05T06:01:38.225Z,20.37
2018-11-05T06:04:05.819Z,22.35
2018-11-05T06:06:33.509Z,17.92
2018-11-05T06:09:00.972Z,19.52
2018-11-05T06:11:28.545Z,19.65
2018-11-05T06:13:56.031Z,19.80
2018-11-05T06:16:23.577Z,20.72
2018-11-05T06:18:51.208Z,15.38
2018-11-05T06:21:18.739Z,21.95
2018-11-05T06:23:46.219Z,18.35
2018-11-05T06:26:13.788Z,22.13
2018-11-05T06:28:41.349Z,21.87
2018-11-05T06:31:08.890Z,21.07
2018-11-05T06:33:36.347Z,17.67
2018-11-05T06:36:03.918Z,20.00
2018-11-05T06:38:31.377Z,22.10
2018-11-05T06:40:58.991Z,23.70
2018-11-05T06:43:26.497Z,20.82
2018-11-05T06:45:54.063Z,20.68
2018-11-05T06:48:21.610Z,20.72
2018-11-05T06:50:49.235Z,24.43
2018-11-05T06:53:16.731Z,31.75
2018-11-05T06:55:44.205Z,37.03
2018-11-05T06:58:11.757Z,56.05
2018-11-05T07:00:39.266Z,116.28
2018-11-05T07:03:06.768Z,60.58
2018-11-05T07:05:34.362Z,54.98
2018-11-05T07:08:01.973Z,80.75
2018-11-05T07:10:29.458Z,81.20
2018-11-05T07:12:57.052Z,78.30
2018-11-05T07:15:24.545Z,34.03
2018-11-05T07:17:52.121Z,86.70
2018-11-05T07:20:20.583Z,39.65
2018-11-05T07:22:49.026Z,33.18
2018-11-05T07:25:16.609Z,67.00
2018-11-05T07:27:44.371Z,39.60
2018-11-05T07:30:14.827Z,63.20
2018-11-05T07:32:42.306Z,150.95
2018-11-05T07:35:11.577Z,58.08
2018-11-05T07:37:39.119Z,34.35
2018-11-05T07:40:08.079Z,35.55
2018-11-05T07:42:35.553Z,56.15
2018-11-05T07:45:03.737Z,51.00
2018-11-05T07:47:31.285Z,50.80
2018-11-05T07:49:58.895Z,110.45
2018-11-05T07:52:26.485Z,65.40
2018-11-05T07:54:54.059Z,51.10
2018-11-05T07:57:21.582Z,47.83
2018-11-05T07:59:49.169Z,65.00
2018-11-05T08:02:16.700Z,110.52
2018-11-05T08:04:44.270Z,130.40
2018-11-05T08:07:11.820Z,43.85
2018-11-05T08:09:39.350Z,37.75
2018-11-05T08:12:06.977Z,74.30
2018-11-05T08:14:34.514Z,41.75
2018-11-05T08:17:02.118Z,40.73
2018-11-05T08:19:29.614Z,27.95
2018-11-05T08:21:57.178Z,24.18
2018-11-05T08:24:24.689Z,23.60
2018-11-05T08:26:52.245Z,25.25
2018-11-05T08:29:19.757Z,26.12
2018-11-05T08:31:47.326Z,25.80
2018-11-05T08:34:14.884Z,22.58
2018-11-05T08:36:42.424Z,49.53
2018-11-05T08:39:11.125Z,70.25
2018-11-05T08:41:38.695Z,47.98
2018-11-05T08:44:07.122Z,38.85
2018-11-05T08:46:34.689Z,58.95
2018-11-05T08:49:02.182Z,22.48
2018-11-05T08:51:30.019Z,25.25
2018-11-05T08:53:57.333Z,21.68
2018-11-05T08:56:24.931Z,23.12
2018-11-05T08:58:52.413Z,25.08
2018-11-05T09:01:19.994Z,22.25
2018-11-05T09:03:48.914Z,21.02
2018-11-05T09:06:17.310Z,20.68
2018-11-05T09:08:45.070Z,22.48
2018-11-05T09:11:13.199Z,21.57
2018-11-05T09:13:40.369Z,25.57
2018-11-05T09:16:08.047Z,26.37
2018-11-05T09:18:35.578Z,23.07
2018-11-05T09:21:03.130Z,28.50
2018-11-05T09:23:30.722Z,24.90
2018-11-05T09:25:58.225Z,24.30
2018-11-05T09:28:25.785Z,25.45
2018-11-05T09:30:53.263Z,24.98
2018-11-05T09:33:20.809Z,22.73
2018-11-05T09:35:48.318Z,24.52
2018-11-05T09:38:15.775Z,31.12
2018-11-05T09:40:43.339Z,30.10
2018-11-05T09:43:10.922Z,24.65
2018-11-05T09:45:38.497Z,26.95
2018-11-05T09:48:05.987Z,25.17
2018-11-05T09:50:33.770Z,24.02
2018-11-05T09:53:01.284Z,23.00
2018-11-05T09:55:28.869Z,22.40
2018-11-05T09:57:56.317Z,21.62
2018-11-05T10:00:25.990Z,28.12
2018-11-05T10:02:59.263Z,23.35
2018-11-05T10:05:26.811Z,25.40
2018-11-05T10:07:54.291Z,21.70
2018-11-05T10:10:21.944Z,19.90
2018-11-05T10:12:49.393Z,21.87
2018-11-05T10:15:17.666Z,21.27
2018-11-05T10:17:45.176Z,28.95
2018-11-05T10:20:28.717Z,18.98
2018-11-05T10:22:56.188Z,25.80
2018-11-05T10:25:23.747Z,25.55
2018-11-05T10:27:51.682Z,22.45
2018-11-05T10:30:22.503Z,21.52
2018-11-05T10:32:50.057Z,20.57
2018-11-05T10:35:18.050Z,19.92
2018-11-05T10:37:45.675Z,20.30
2018-11-05T10:40:15.216Z,19.75
2018-11-05T10:42:43.664Z,19.05
2018-11-05T10:45:12.575Z,17.87
2018-11-05T10:47:40.181Z,18.50
2018-11-05T10:50:08.667Z,18.60
2018-11-05T10:52:36.299Z,23.07
2018-11-05T10:55:03.830Z,19.60
2018-11-05T10:57:31.398Z,17.77
2018-11-05T10:59:58.890Z,18.57
2018-11-05T11:02:32.066Z,19.77
2018-11-05T11:04:59.568Z,17.82
2018-11-05T11:07:27.152Z,15.88
2018-11-05T11:09:54.638Z,16.57
2018-11-05T11:12:22.191Z,16.10
2018-11-05T11:14:49.689Z,17.15
2018-11-05T11:17:17.229Z,20.00
2018-11-05T11:19:44.718Z,15.98
2018-11-05T11:22:12.304Z,13.65
2018-11-05T11:24:39.737Z,14.58
2018-11-05T11:27:07.289Z,13.50
2018-11-05T11:29:34.838Z,13.78
2018-11-05T11:32:02.357Z,13.13
2018-11-05T11:34:29.934Z,13.28
2018-11-05T11:36:57.467Z,12.18
2018-11-05T11:39:25.061Z,11.73
2018-11-05T11:41:52.691Z,12.78
2018-11-05T11:44:20.232Z,12.45
2018-11-05T11:46:47.730Z,13.35
2018-11-05T11:49:15.301Z,11.15
2018-11-05T11:51:42.869Z,12.07
2018-11-05T11:54:10.497Z,11.15
2018-11-05T11:56:38.063Z,11.40
2018-11-05T11:59:05.671Z,12.78
2018-11-05T12:01:38.959Z,10.70
2018-11-05T12:04:06.615Z,12.15
2018-11-05T12:06:34.085Z,13.38
2018-11-05T12:09:01.971Z,11.68
2018-11-05T12:11:29.547Z,11.45
2018-11-05T12:13:57.065Z,12.35
2018-11-05T12:16:24.614Z,14.55
2018-11-05T12:18:52.089Z,12.00
2018-11-05T12:21:19.666Z,12.33
2018-11-05T12:23:47.141Z,12.65
2018-11-05T12:26:14.691Z,13.93
2018-11-05T12:28:42.211Z,12.80
2018-11-05T12:31:09.741Z,15.60
2018-11-05T12:33:37.260Z,14.38
2018-11-05T12:36:05.175Z,13.30
2018-11-05T12:38:32.713Z,13.13
2018-11-05T12:41:00.247Z,13.70
2018-11-05T12:43:27.786Z,12.65
2018-11-05T12:45:55.371Z,12.15
2018-11-05T12:48:22.989Z,12.93
2018-11-05T12:50:50.578Z,13.05
2018-11-05T12:53:18.260Z,14.93
2018-11-05T12:55:45.759Z,15.48
2018-11-05T12:58:13.343Z,12.88
2018-11-05T13:00:40.822Z,15.10
2018-11-05T13:03:08.430Z,14.87
2018-11-05T13:05:35.920Z,14.03
2018-11-05T13:08:03.489Z,11.90
2018-11-05T13:10:31.055Z,13.00
2018-11-05T13:12:58.627Z,12.95
2018-11-05T13:15:26.516Z,13.35
2018-11-05T13:17:53.770Z,13.80
2018-11-05T13:20:22.437Z,14.80
2018-11-05T13:22:50.132Z,12.50
2018-11-05T13:25:17.712Z,12.58
2018-11-05T13:27:46.572Z,15.72
2018-11-05T13:30:14.740Z,13.25
2018-11-05T13:32:42.716Z,14.40
2018-11-05T13:35:11.874Z,13.65
2018-11-05T13:37:39.943Z,12.98
2018-11-05T13:40:09.194Z,12.50
2018-11-05T13:42:36.768Z,11.88
2018-11-05T13:45:05.080Z,13.50
2018-11-05T13:47:33.442Z,12.45
2018-11-05T13:50:00.519Z,11.73
2018-11-05T13:52:27.964Z,12.23
2018-11-05T13:54:55.722Z,12.18
2018-11-05T13:57:23.065Z,12.20
2018-11-05T13:59:50.602Z,11.93
2018-11-05T14:02:18.348Z,12.13
2018-11-05T14:04:45.779Z,11.05
2018-11-05T14:07:13.361Z,13.22
2018-11-05T14:09:40.875Z,13.13
2018-11-05T14:12:08.415Z,11.75
2018-11-05T14:14:35.889Z,11.40
2018-11-05T14:17:03.506Z,10.70
2018-11-05T14:19:31.034Z,13.48
2018-11-05T14:21:58.612Z,11.50
2018-11-05T14:24:26.162Z,11.35
2018-11-05T14:26:53.670Z,14.60
2018-11-05T14:29:21.776Z,10.60
2018-11-05T14:31:48.807Z,11.88
2018-11-05T14:34:16.376Z,10.43
2018-11-05T14:36:43.950Z,11.03
2018-11-05T14:39:13.034Z,11.28
2018-11-05T14:41:41.032Z,15.35
2018-11-05T14:44:08.732Z,11.70
2018-11-05T14:46:36.229Z,11.43
2018-11-05T14:49:03.984Z,10.55
2018-11-05T14:51:31.652Z,10.38
2018-11-05T14:53:59.230Z,11.05
2018-11-05T14:56:26.736Z,10.60
2018-11-05T14:58:54.330Z,9.18
2018-11-05T15:01:21.801Z,9.38
2018-11-05T15:03:49.401Z,9.85
2018-11-05T15:06:16.918Z,9.80
2018-11-05T15:08:44.483Z,9.43
2018-11-05T15:11:12.106Z,10.20
2018-11-05T15:13:39.636Z,10.05
2018-11-05T15:16:07.251Z,10.05
2018-11-05T15:18:34.879Z,10.85
2018-11-05T15:21:02.712Z,10.78
2018-11-05T15:23:30.178Z,10.48
2018-11-05T15:25:57.845Z,10.32
2018-11-05T15:28:25.336Z,9.95
2018-11-05T15:30:54.007Z,10.32
2018-11-05T15:33:21.545Z,10.13
2018-11-05T15:35:49.097Z,10.53
2018-11-05T15:38:16.610Z,10.43
2018-11-05T15:40:44.249Z,9.50
2018-11-05T15:43:11.806Z,10.63
2018-11-05T15:45:39.414Z,10.05
2018-11-05T15:48:06.963Z,10.15
2018-11-05T15:50:34.651Z,9.70
2018-11-05T15:53:02.689Z,10.20
2018-11-05T15:55:29.861Z,10.43
2018-11-05T15:57:57.366Z,10.75
2018-11-05T16:00:25.291Z,10.82
2018-11-05T16:02:57.395Z,10.70
2018-11-05T16:05:24.913Z,11.60
2018-11-05T16:07:52.517Z,10.72
2018-11-05T16:10:20.161Z,13.58
2018-11-05T16:12:47.791Z,10.70
2018-11-05T16:15:15.326Z,12.05
2018-11-05T16:17:42.908Z,12.07
2018-11-05T16:20:12.752Z,10.80
2018-11-05T16:22:40.361Z,13.43
2018-11-05T16:25:08.032Z,15.08
2018-11-05T16:27:35.655Z,13.50
2018-11-05T16:30:03.588Z,14.07
2018-11-05T16:32:31.174Z,12.90
2018-11-05T16:34:58.952Z,14.60
2018-11-05T16:37:26.433Z,13.00
2018-11-05T16:39:54.039Z,14.03
2018-11-05T16:42:21.575Z,12.25
2018-11-05T16:44:49.213Z,12.88
2018-11-05T16:47:16.779Z,11.80
2018-11-05T16:49:44.382Z,14.50
2018-11-05T16:52:12.030Z,17.00
2018-11-05T16:54:39.646Z,21.82
2018-11-05T16:57:07.234Z,15.88
2018-11-05T16:59:35.536Z,18.87
2018-11-05T17:02:06.842Z,16.37
2018-11-05T17:04:34.093Z,14.70
2018-11-05T17:07:01.595Z,15.38
2018-11-05T17:09:29.155Z,16.42
2018-11-05T17:11:56.646Z,14.80
2018-11-05T17:14:24.243Z,16.20
2018-11-05T17:16:51.767Z,18.37
2018-11-05T17:19:19.343Z,16.17
2018-11-05T17:21:46.966Z,17.00
2018-11-05T17:24:14.578Z,17.48
2018-11-05T17:26:42.207Z,19.23
2018-11-05T17:29:09.734Z,18.92
2018-11-05T17:31:37.333Z,15.60
2018-11-05T17:34:04.903Z,17.32
2018-11-05T17:36:32.485Z,16.73
2018-11-05T17:39:00.016Z,15.95
2018-11-05T17:41:27.598Z,15.25
2018-11-05T17:43:55.102Z,16.25
2018-11-05T17:46:22.681Z,17.32
2018-11-05T17:48:50.283Z,20.32
2018-11-05T17:51:17.915Z,21.00
2018-11-05T17:53:45.542Z,16.15
2018-11-05T17:56:13.199Z,17.60
2018-11-05T17:58:40.678Z,17.45
2018-11-05T18:01:08.166Z,19.17
2018-11-05T18:03:35.775Z,18.25
2018-11-05T18:06:03.326Z,15.45
2018-11-05T18:08:30.895Z,17.77
2018-11-05T18:10:58.393Z,19.37
2018-11-05T18:13:26.018Z,17.30
2018-11-05T18:15:53.550Z,18.87
2018-11-05T18:18:21.807Z,17.20
2018-11-05T18:20:49.323Z,18.15
2018-11-05T18:23:16.982Z,16.45
2018-11-05T18:25:44.501Z,15.45
2018-11-05T18:28:12.130Z,19.57
2018-11-05T18:30:39.704Z,17.50
2018-11-05T18:33:07.226Z,18.42
2018-11-05T18:35:34.866Z,24.10
2018-11-05T18:38:02.795Z,20.15
2018-11-05T18:40:30.328Z,17.32
2018-11-05T18:42:57.893Z,15.65
2018-11-05T18:45:25.509Z,17.00
2018-11-05T18:47:52.978Z,15.35
2018-11-05T18:50:21.821Z,20.65
2018-11-05T18:52:52.697Z,17.35
2018-11-05T18:55:20.357Z,18.10
2018-11-05T18:57:47.957Z,16.35
2018-11-05T19:00:19.991Z,17.25
2018-11-05T19:02:48.259Z,18.30
2018-11-05T19:05:16.718Z,17.35
2018-11-05T19:07:44.241Z,19.65
2018-11-05T19:10:12.041Z,16.52
2018-11-05T19:12:39.806Z,18.02
2018-11-05T19:15:08.805Z,21.93
2018-11-05T19:17:36.423Z,19.35
2018-11-05T19:20:05.262Z,22.98
2018-11-05T19:22:32.923Z,16.90
2018-11-05T19:25:00.856Z,18.95
2018-11-05T19:27:28.503Z,17.55
2018-11-05T19:29:56.155Z,17.45
2018-11-05T19:32:23.780Z,17.02
2018-11-05T19:34:51.340Z,17.70
2018-11-05T19:37:19.118Z,21.17
2018-11-05T19:39:46.644Z,18.15
2018-11-05T19:42:14.387Z,17.45
2018-11-05T19:44:41.883Z,19.60
2018-11-05T19:47:09.496Z,20.43
2018-11-05T19:49:37.047Z,18.07
2018-11-05T19:52:04.905Z,18.52
2018-11-05T19:54:32.513Z,16.60
2018-11-05T19:57:00.188Z,19.87
2018-11-05T19:59:27.748Z,17.80
2018-11-05T20:01:55.421Z,18.95
2018-11-05T20:04:23.018Z,16.75
2018-11-05T20:06:50.616Z,23.47
2018-11-05T20:09:18.202Z,16.80
2018-11-05T20:11:45.790Z,16.87
2018-11-05T20:14:13.435Z,20.80
2018-11-05T20:16:41.083Z,19.42
2018-11-05T20:19:08.737Z,22.85
2018-11-05T20:21:36.188Z,19.55
2018-11-05T20:24:04.038Z,19.37
2018-11-05T20:26:31.594Z,19.20
2018-11-05T20:28:59.293Z,20.72
2018-11-05T20:31:27.203Z,16.70
2018-11-05T20:33:54.526Z,18.10
2018-11-05T20:36:21.917Z,20.60
2018-11-05T20:38:49.506Z,18.45
2018-11-05T20:41:17.015Z,16.85
2018-11-05T20:43:44.660Z,20.75
2018-11-05T20:46:12.233Z,19.30
2018-11-05T20:48:39.783Z,18.85
2018-11-05T20:51:07.583Z,20.90
2018-11-05T20:53:35.237Z,18.95
2018-11-05T20:56:02.847Z,19.20
2018-11-05T20:58:30.555Z,22.52
2018-11-05T21:00:58.290Z,18.30
2018-11-05T21:03:25.749Z,17.32
2018-11-05T21:05:53.385Z,15.68
2018-11-05T21:08:20.907Z,18.73
2018-11-05T21:10:48.531Z,15.93
2018-11-05T21:13:16.106Z,15.80
2018-11-05T21:15:43.713Z,19.27
2018-11-05T21:18:11.365Z,17.27
2018-11-05T21:20:38.886Z,16.73
2018-11-05T21:23:06.515Z,16.82
2018-11-05T21:25:34.049Z,16.77
2018-11-05T21:28:01.646Z,18.20
2018-11-05T21:30:29.187Z,17.73
2018-11-05T21:32:56.784Z,17.17
2018-11-05T21:35:24.363Z,17.32
2018-11-05T21:37:51.926Z,19.90
2018-11-05T21:40:19.673Z,16.67
2018-11-05T21:42:47.277Z,17.48
2018-11-05T21:45:15.370Z,19.32
2018-11-05T21:47:43.715Z,17.32
2018-11-05T21:50:13.322Z,17.20
2018-11-05T21:52:41.448Z,22.60
2018-11-05T21:55:09.256Z,16.52
2018-11-05T21:57:38.200Z,22.95
2018-11-05T22:00:08.917Z,17.95
2018-11-05T22:02:42.331Z,17.85
2018-11-05T22:05:09.903Z,17.05
2018-11-05T22:07:37.411Z,18.75
2018-11-05T22:10:05.253Z,18.37
2018-11-05T22:12:32.904Z,16.65
2018-11-05T22:15:01.512Z,21.87
2018-11-05T22:17:29.013Z,21.25
2018-11-05T22:19:56.635Z,17.80
2018-11-05T22:22:24.213Z,18.07
2018-11-05T22:24:51.765Z,17.48
2018-11-05T22:27:19.339Z,18.05
2018-11-05T22:29:46.847Z,16.35
2018-11-05T22:32:14.406Z,17.32
2018-11-05T22:34:42.050Z,18.87
2018-11-05T22:37:09.592Z,17.87
2018-11-05T22:39:37.194Z,17.70
2018-11-05T22:42:04.886Z,23.42
2018-11-05T22:44:32.464Z,19.27
2018-11-05T22:47:00.041Z,21.20
2018-11-05T22:49:27.459Z,26.97
2018-11-05T22:51:55.107Z,20.68
2018-11-05T22:54:22.667Z,24.95
2018-11-05T22:56:50.262Z,22.20
2018-11-05T22:59:17.772Z,26.90
2018-11-05T23:01:51.336Z,19.90
2018-11-05T23:04:18.882Z,22.80
2018-11-05T23:06:46.455Z,22.13
2018-11-05T23:09:14.179Z,21.07
2018-11-05T23:11:41.839Z,20.25
2018-11-05T23:14:09.387Z,23.32
2018-11-05T23:16:36.933Z,24.45
2018-11-05T23:19:04.713Z,19.82
2018-11-05T23:21:32.319Z,20.45
2018-11-05T23:23:59.852Z,21.12
2018-11-05T23:26:27.349Z,25.37
2018-11-05T23:28:54.911Z,23.73
2018-11-05T23:31:22.403Z,22.30
2018-11-05T23:33:49.942Z,21.48
2018-11-05T23:36:17.493Z,21.85
2018-11-05T23:38:45.029Z,25.95
2018-11-05T23:41:12.551Z,22.82
2018-11-05T23:43:40.053Z,22.60
2018-11-05T23:46:07.652Z,20.72
2018-11-05T23:48:35.221Z,18.75
2018-11-05T23:51:03.297Z,21.55
2018-11-05T23:53:31.736Z,22.25
2018-11-05T23:55:59.210Z,21.00
2018-11-05T23:58:26.757Z,21.07
